createdAt,value
2023-03-13T00:01:01.500Z,11.61
2023-03-13T00:03:29.713Z,11.59
2023-03-13T00:05:58.367Z,11.67
2023-03-13T00:08:26.502Z,11.68
2023-03-13T00:10:54.080Z,11.72
2023-03-13T00:13:21.742Z,11.69
2023-03-13T00:15:49.630Z,11.74
2023-03-13T00:18:18.770Z,11.73
2023-03-13T00:20:48.848Z,11.79
2023-03-13T00:23:16.584Z,11.75
2023-03-13T00:25:44.209Z,11.72
2023-03-13T00:28:11.865Z,11.76
2023-03-13T00:30:39.775Z,11.80
2023-03-13T00:33:07.418Z,11.87
2023-03-13T00:35:36.528Z,11.89
2023-03-13T00:38:04.186Z,11.86
2023-03-13T00:40:31.886Z,11.81
2023-03-13T00:42:59.675Z,11.80
2023-03-13T00:45:27.875Z,11.83
2023-03-13T00:47:55.524Z,11.85
2023-03-13T00:50:23.128Z,11.93
2023-03-13T00:52:52.189Z,11.96
2023-03-13T00:55:19.814Z,11.97
2023-03-13T00:57:47.498Z,11.98
2023-03-13T01:00:16.751Z,11.98
2023-03-13T01:02:44.807Z,12.04
2023-03-13T01:05:13.274Z,12.03
2023-03-13T01:07:40.951Z,12.05
2023-03-13T01:10:11.101Z,12.07
2023-03-13T01:12:38.721Z,12.10
2023-03-13T01:15:07.388Z,12.11
2023-03-13T01:17:35.055Z,12.09
2023-03-13T01:20:02.782Z,12.07
2023-03-13T01:22:30.527Z,12.07
2023-03-13T01:24:58.180Z,12.04
2023-03-13T01:27:27.147Z,12.07
2023-03-13T01:29:54.890Z,12.16
2023-03-13T01:32:22.644Z,12.14
2023-03-13T01:34:50.407Z,12.12
2023-03-13T01:37:18.101Z,12.07
2023-03-13T01:39:45.765Z,12.08
2023-03-13T01:42:14.382Z,12.01
2023-03-13T01:44:54.416Z,11.98
2023-03-13T01:47:22.214Z,11.94
2023-03-13T01:49:52.135Z,11.93
2023-03-13T01:52:23.146Z,11.91
2023-03-13T01:54:55.437Z,11.92
2023-03-13T01:57:26.792Z,11.85
2023-03-13T01:59:59.140Z,11.80
2023-03-13T02:02:28.372Z,11.77
2023-03-13T02:05:00.640Z,11.82
2023-03-13T02:07:33.915Z,11.85
2023-03-13T02:10:03.890Z,11.82
2023-03-13T02:12:33.850Z,11.81
2023-03-13T02:15:06.740Z,11.80
2023-03-13T02:17:35.728Z,11.87
2023-03-13T02:20:04.912Z,11.80
2023-03-13T02:22:38.944Z,11.84
2023-03-13T02:25:13.742Z,11.87
2023-03-13T02:27:44.700Z,11.83
2023-03-13T02:30:15.990Z,11.85
2023-03-13T02:32:45.218Z,11.85
2023-03-13T02:35:15.475Z,11.83
2023-03-13T02:37:45.275Z,11.79
2023-03-13T02:40:16.422Z,11.76
2023-03-13T02:42:47.004Z,11.78
2023-03-13T02:45:15.589Z,11.74
2023-03-13T02:47:43.485Z,11.67
2023-03-13T02:50:12.792Z,11.65
2023-03-13T02:52:44.372Z,11.61
2023-03-13T02:55:18.058Z,11.60
2023-03-13T02:57:47.085Z,11.57
2023-03-13T03:00:17.119Z,11.58
2023-03-13T03:02:44.774Z,11.60
2023-03-13T03:05:13.170Z,11.66
2023-03-13T03:07:40.828Z,11.70
2023-03-13T03:10:09.888Z,11.75
2023-03-13T03:12:37.475Z,11.79
2023-03-13T03:15:07.551Z,11.80
2023-03-13T03:17:35.218Z,11.81
2023-03-13T03:20:02.854Z,11.78
2023-03-13T03:22:30.442Z,11.72
2023-03-13T03:24:58.143Z,11.78
2023-03-13T03:27:25.787Z,11.73
2023-03-13T03:29:53.426Z,11.73
2023-03-13T03:32:22.459Z,11.69
2023-03-13T03:34:50.145Z,11.68
2023-03-13T03:37:17.740Z,11.70
2023-03-13T03:39:45.489Z,11.69
2023-03-13T03:42:13.131Z,11.74
2023-03-13T03:44:42.447Z,11.75
2023-03-13T03:47:10.181Z,11.68
2023-03-13T03:49:39.254Z,11.68
2023-03-13T03:52:07.665Z,11.67
2023-03-13T03:54:36.138Z,11.66
2023-03-13T03:57:03.840Z,11.73
2023-03-13T03:59:31.523Z,11.73
2023-03-13T04:01:59.448Z,11.70
2023-03-13T04:04:27.520Z,11.58
2023-03-13T04:06:56.537Z,11.55
2023-03-13T04:09:24.385Z,11.57
2023-03-13T04:11:51.998Z,11.58
2023-03-13T04:14:19.670Z,11.55
2023-03-13T04:16:47.467Z,11.55
2023-03-13T04:19:15.128Z,11.59
2023-03-13T04:21:42.847Z,11.54
2023-03-13T04:24:11.866Z,11.51
2023-03-13T04:26:39.582Z,11.48
2023-03-13T04:29:07.288Z,11.52
2023-03-13T04:31:35.010Z,11.55
2023-03-13T04:34:02.671Z,11.60
2023-03-13T04:36:30.408Z,11.60
2023-03-13T04:38:58.078Z,11.52
2023-03-13T04:41:27.065Z,11.52
2023-03-13T04:43:54.726Z,11.53
2023-03-13T04:46:22.594Z,11.54
2023-03-13T04:48:50.364Z,11.47
2023-03-13T04:51:18.130Z,11.47
2023-03-13T04:53:45.799Z,11.51
2023-03-13T04:56:29.565Z,11.55
2023-03-13T04:59:10.718Z,11.52
2023-03-13T05:01:38.529Z,11.51
2023-03-13T05:04:06.493Z,11.51
2023-03-13T05:06:34.269Z,11.56
2023-03-13T05:09:02.061Z,11.54
2023-03-13T05:11:30.137Z,11.59
2023-03-13T05:13:57.884Z,11.63
2023-03-13T05:16:26.947Z,11.67
2023-03-13T05:18:54.657Z,11.65
2023-03-13T05:21:22.470Z,11.66
2023-03-13T05:23:50.098Z,11.62
2023-03-13T05:26:17.769Z,11.73
2023-03-13T05:28:45.443Z,11.72
2023-03-13T05:31:13.106Z,11.68
2023-03-13T05:33:42.086Z,11.75
2023-03-13T05:36:10.460Z,11.82
2023-03-13T05:38:38.259Z,11.86
2023-03-13T05:41:06.067Z,12.00
2023-03-13T05:43:33.856Z,12.06
2023-03-13T05:46:01.613Z,12.07
2023-03-13T05:48:29.252Z,12.12
2023-03-13T05:50:59.519Z,12.18
2023-03-13T05:53:27.404Z,12.28
2023-03-13T05:55:54.996Z,12.24
2023-03-13T05:58:22.670Z,12.30
2023-03-13T06:00:50.393Z,12.34
2023-03-13T06:03:18.097Z,12.43
2023-03-13T06:05:45.830Z,12.38
2023-03-13T06:08:14.842Z,12.44
2023-03-13T06:10:42.512Z,12.52
2023-03-13T06:13:19.489Z,12.45
2023-03-13T06:15:52.395Z,12.49
2023-03-13T06:18:20.050Z,12.54
2023-03-13T06:20:49.065Z,12.65
2023-03-13T06:23:18.339Z,12.67
2023-03-13T06:25:48.456Z,12.69
2023-03-13T06:28:16.110Z,12.74
2023-03-13T06:30:44.000Z,12.80
2023-03-13T06:33:11.866Z,12.91
2023-03-13T06:35:55.162Z,12.93
2023-03-13T06:38:25.687Z,13.06
2023-03-13T06:40:53.615Z,13.08
2023-03-13T06:43:21.966Z,13.12
2023-03-13T06:45:49.659Z,13.10
2023-03-13T06:48:17.912Z,13.15
2023-03-13T06:50:45.963Z,13.26
2023-03-13T06:53:16.919Z,13.19
2023-03-13T06:55:47.025Z,13.27
2023-03-13T06:58:29.204Z,13.29
2023-03-13T07:00:59.765Z,13.30
2023-03-13T07:03:27.536Z,13.37
2023-03-13T07:05:57.868Z,13.32
2023-03-13T07:08:26.377Z,13.41
2023-03-13T07:10:59.380Z,13.42
2023-03-13T07:13:27.093Z,13.47
2023-03-13T07:15:54.762Z,13.46
2023-03-13T07:18:24.182Z,13.51
2023-03-13T07:20:55.821Z,13.56
2023-03-13T07:23:24.103Z,13.64
2023-03-13T07:25:57.552Z,13.70
2023-03-13T07:28:25.986Z,13.83
2023-03-13T07:30:53.905Z,13.82
2023-03-13T07:33:21.838Z,13.87
2023-03-13T07:35:50.521Z,13.87
2023-03-13T07:38:18.446Z,13.91
2023-03-13T07:40:51.253Z,13.87
2023-03-13T07:43:20.512Z,13.90
2023-03-13T07:45:55.648Z,13.92
2023-03-13T07:48:24.025Z,13.98
2023-03-13T07:50:51.892Z,14.01
2023-03-13T07:53:22.021Z,14.01
2023-03-13T07:55:57.574Z,14.05
2023-03-13T07:58:28.428Z,14.11
2023-03-13T08:00:56.455Z,14.13
2023-03-13T08:03:25.150Z,14.15
2023-03-13T08:05:59.445Z,14.20
2023-03-13T08:08:27.224Z,14.25
2023-03-13T08:10:54.952Z,14.21
2023-03-13T08:13:22.644Z,14.19
2023-03-13T08:15:51.608Z,14.28
2023-03-13T08:18:19.654Z,14.31
2023-03-13T08:20:47.479Z,14.33
2023-03-13T08:23:15.081Z,14.35
2023-03-13T08:25:42.708Z,14.38
2023-03-13T08:28:11.414Z,14.44
2023-03-13T08:30:41.935Z,14.37
2023-03-13T08:33:11.146Z,14.43
2023-03-13T08:35:41.788Z,14.42
2023-03-13T08:38:09.559Z,14.45
2023-03-13T08:40:37.286Z,14.44
2023-03-13T08:43:05.004Z,14.40
2023-03-13T08:45:32.678Z,14.46
2023-03-13T08:48:00.370Z,14.43
2023-03-13T08:50:29.923Z,14.40
2023-03-13T08:52:57.675Z,14.39
2023-03-13T08:55:26.578Z,14.43
2023-03-13T08:57:54.278Z,14.40
2023-03-13T09:00:22.338Z,14.44
2023-03-13T09:02:50.106Z,14.47
2023-03-13T09:05:17.940Z,14.49
2023-03-13T09:07:46.942Z,14.52
2023-03-13T09:10:14.747Z,14.51
2023-03-13T09:12:42.565Z,14.47
2023-03-13T09:15:11.397Z,14.51
2023-03-13T09:17:39.111Z,14.51
2023-03-13T09:20:08.738Z,14.52
2023-03-13T09:22:36.386Z,14.52
2023-03-13T09:25:06.039Z,14.62
2023-03-13T09:27:33.699Z,14.63
2023-03-13T09:30:01.439Z,14.74
2023-03-13T09:32:29.137Z,14.80
2023-03-13T09:34:56.823Z,14.87
2023-03-13T09:37:24.516Z,14.91
2023-03-13T09:39:52.634Z,15.02
2023-03-13T09:42:23.618Z,15.08
2023-03-13T09:44:56.444Z,15.13
2023-03-13T09:47:27.641Z,15.27
2023-03-13T09:49:59.100Z,15.53
2023-03-13T09:52:28.666Z,16.96
2023-03-13T09:55:00.551Z,19.37
2023-03-13T09:57:35.347Z,20.74
2023-03-13T10:00:12.434Z,22.58
2023-03-13T10:02:41.401Z,23.46
2023-03-13T10:05:15.159Z,24.60
2023-03-13T10:07:49.491Z,25.03
2023-03-13T10:10:20.198Z,23.96
2023-03-13T10:12:53.444Z,22.26
2023-03-13T10:15:38.922Z,20.96
2023-03-13T10:18:16.766Z,20.09
2023-03-13T10:20:46.921Z,19.51
2023-03-13T10:23:20.134Z,19.06
2023-03-13T10:25:48.004Z,18.91
2023-03-13T10:28:20.184Z,19.48
2023-03-13T10:30:52.322Z,21.60
2023-03-13T10:33:24.359Z,26.10
2023-03-13T10:36:08.273Z,28.42
2023-03-13T10:38:46.281Z,30.98
2023-03-13T10:41:24.798Z,33.48
2023-03-13T10:43:55.329Z,31.96
2023-03-13T10:46:27.811Z,29.78
2023-03-13T10:48:56.552Z,28.88
2023-03-13T10:51:26.114Z,27.40
2023-03-13T10:53:54.062Z,26.26
2023-03-13T10:56:29.676Z,25.09
2023-03-13T10:58:58.888Z,24.08
2023-03-13T11:01:29.020Z,23.87
2023-03-13T11:04:00.349Z,23.78
2023-03-13T11:06:30.974Z,23.93
2023-03-13T11:09:06.122Z,23.19
2023-03-13T11:11:45.394Z,22.08
2023-03-13T11:14:20.275Z,21.25
2023-03-13T11:16:50.409Z,20.97
2023-03-13T11:19:31.102Z,21.11
2023-03-13T11:22:08.474Z,21.08
2023-03-13T11:24:45.431Z,21.35
2023-03-13T11:27:26.053Z,22.64
2023-03-13T11:30:06.020Z,25.23
2023-03-13T11:32:42.541Z,26.76
2023-03-13T11:35:24.790Z,26.72
2023-03-13T11:37:56.597Z,25.74
2023-03-13T11:40:33.353Z,23.98
2023-03-13T11:43:25.304Z,23.42
2023-03-13T11:46:08.455Z,22.47
2023-03-13T11:48:53.038Z,22.13
2023-03-13T11:51:27.484Z,21.56
2023-03-13T11:54:13.136Z,20.99
2023-03-13T11:56:44.955Z,20.60
2023-03-13T11:59:33.086Z,20.20
2023-03-13T12:02:10.324Z,20.02
2023-03-13T12:04:42.136Z,19.64
2023-03-13T12:07:21.343Z,19.53
2023-03-13T12:09:52.941Z,19.34
2023-03-13T12:12:30.573Z,19.05
2023-03-13T12:15:01.865Z,19.12
2023-03-13T12:17:35.668Z,18.93
2023-03-13T12:20:09.194Z,18.98
2023-03-13T12:22:42.452Z,18.90
2023-03-13T12:25:16.386Z,18.79
2023-03-13T12:27:48.903Z,18.71
2023-03-13T12:30:29.213Z,18.78
2023-03-13T12:33:06.257Z,18.89
2023-03-13T12:35:34.289Z,18.83
2023-03-13T12:38:11.244Z,18.78
2023-03-13T12:40:42.463Z,18.73
2023-03-13T12:43:15.528Z,18.68
2023-03-13T12:46:03.684Z,18.58
2023-03-13T12:48:52.267Z,18.50
2023-03-13T12:51:33.955Z,18.45
2023-03-13T12:54:27.157Z,18.51
2023-03-13T12:57:11.710Z,18.43
2023-03-13T12:59:42.713Z,18.40
2023-03-13T13:02:17.697Z,18.39
2023-03-13T13:04:49.267Z,18.25
2023-03-13T13:07:24.238Z,18.32
2023-03-13T13:10:18.586Z,18.32
2023-03-13T13:12:47.422Z,18.41
2023-03-13T13:15:26.203Z,18.35
2023-03-13T13:18:13.963Z,18.45
2023-03-13T13:20:46.308Z,18.53
2023-03-13T13:23:37.499Z,18.56
2023-03-13T13:26:48.205Z,18.59
2023-03-13T13:29:58.010Z,18.79
2023-03-13T13:32:41.164Z,18.84
2023-03-13T13:35:34.138Z,19.06
2023-03-13T13:38:36.723Z,19.11
2023-03-13T13:41:23.167Z,19.17
2023-03-13T13:44:11.929Z,19.21
2023-03-13T13:46:46.298Z,19.22
2023-03-13T13:49:17.913Z,19.23
2023-03-13T13:52:31.753Z,19.18
2023-03-13T13:55:01.246Z,19.15
2023-03-13T13:57:32.838Z,19.06
2023-03-13T14:00:18.092Z,19.01
2023-03-13T14:02:52.031Z,18.96
2023-03-13T14:05:22.857Z,19.00
2023-03-13T14:07:56.377Z,19.18
2023-03-13T14:10:33.131Z,19.26
2023-03-13T14:13:02.484Z,19.28
2023-03-13T14:15:32.220Z,19.27
2023-03-13T14:18:02.238Z,19.17
2023-03-13T14:20:33.592Z,19.17
2023-03-13T14:23:03.648Z,19.12
2023-03-13T14:25:45.779Z,19.16
2023-03-13T14:28:21.526Z,19.23
2023-03-13T14:30:51.285Z,19.38
2023-03-13T14:33:19.916Z,19.51
2023-03-13T14:35:49.031Z,19.75
2023-03-13T14:38:19.693Z,19.72
2023-03-13T14:40:49.441Z,19.80
2023-03-13T14:43:24.577Z,19.87
2023-03-13T14:45:52.918Z,19.84
2023-03-13T14:48:24.694Z,19.94
2023-03-13T14:51:14.226Z,20.03
2023-03-13T14:53:55.342Z,20.11
2023-03-13T14:56:32.976Z,20.12
2023-03-13T14:59:17.692Z,20.33
2023-03-13T15:01:46.474Z,20.48
2023-03-13T15:04:14.369Z,20.49
2023-03-13T15:06:42.420Z,20.57
2023-03-13T15:09:20.037Z,20.64
2023-03-13T15:11:58.117Z,20.56
2023-03-13T15:14:38.499Z,20.40
2023-03-13T15:17:16.027Z,20.27
2023-03-13T15:19:44.623Z,20.17
2023-03-13T15:22:15.501Z,20.05
2023-03-13T15:24:48.437Z,19.88
2023-03-13T15:27:25.125Z,19.80
2023-03-13T15:29:53.241Z,19.75
2023-03-13T15:32:27.804Z,19.63
2023-03-13T15:34:58.393Z,19.47
2023-03-13T15:37:26.853Z,19.11
2023-03-13T15:39:55.750Z,18.64
2023-03-13T15:42:25.709Z,17.99
2023-03-13T15:44:53.559Z,17.71
2023-03-13T15:47:23.247Z,17.47
2023-03-13T15:49:51.294Z,17.21
2023-03-13T15:52:22.831Z,16.95
2023-03-13T15:54:51.965Z,16.83
2023-03-13T15:57:23.532Z,16.73
2023-03-13T15:59:53.429Z,16.61
2023-03-13T16:02:23.242Z,16.48
2023-03-13T16:04:51.929Z,16.38
2023-03-13T16:07:21.165Z,16.22
2023-03-13T16:09:49.408Z,16.10
2023-03-13T16:12:17.197Z,16.05
2023-03-13T16:14:44.855Z,16.04
2023-03-13T16:17:17.313Z,15.92
2023-03-13T16:19:45.534Z,15.80
2023-03-13T16:22:14.371Z,15.81
2023-03-13T16:24:42.566Z,15.86
2023-03-13T16:27:14.125Z,15.87
2023-03-13T16:29:41.831Z,15.86
2023-03-13T16:32:14.585Z,15.85
2023-03-13T16:34:43.150Z,15.82
2023-03-13T16:37:13.433Z,15.76
2023-03-13T16:39:41.230Z,15.74
2023-03-13T16:42:09.165Z,15.69
2023-03-13T16:44:37.075Z,15.54
2023-03-13T16:47:16.901Z,15.43
2023-03-13T16:49:47.565Z,15.37
2023-03-13T16:52:16.247Z,15.37
2023-03-13T16:54:44.253Z,15.36
2023-03-13T16:57:12.946Z,15.27
2023-03-13T16:59:40.991Z,15.26
2023-03-13T17:02:16.015Z,15.31
2023-03-13T17:04:44.974Z,15.34
2023-03-13T17:07:19.205Z,15.32
2023-03-13T17:09:46.977Z,15.28
2023-03-13T17:12:14.703Z,15.31
2023-03-13T17:14:42.484Z,15.32
2023-03-13T17:17:13.511Z,15.33
2023-03-13T17:19:41.371Z,15.35
2023-03-13T17:22:12.580Z,15.38
2023-03-13T17:24:42.446Z,15.41
2023-03-13T17:27:13.332Z,15.42
2023-03-13T17:29:41.117Z,15.40
2023-03-13T17:32:11.090Z,15.42
2023-03-13T17:34:38.948Z,15.40
2023-03-13T17:37:15.810Z,15.39
2023-03-13T17:39:45.454Z,15.46
2023-03-13T17:42:13.654Z,15.48
2023-03-13T17:44:42.054Z,15.47
2023-03-13T17:47:15.901Z,15.50
2023-03-13T17:49:43.826Z,15.45
2023-03-13T17:52:15.729Z,15.47
2023-03-13T17:54:45.823Z,15.51
2023-03-13T17:57:19.735Z,15.51
2023-03-13T17:59:49.250Z,15.52
2023-03-13T18:02:19.295Z,15.53
2023-03-13T18:04:49.044Z,15.51
2023-03-13T18:07:22.301Z,15.52
2023-03-13T18:09:51.368Z,15.47
2023-03-13T18:12:19.614Z,15.44
2023-03-13T18:14:47.835Z,15.39
2023-03-13T18:17:17.860Z,15.34
2023-03-13T18:19:46.287Z,15.26
2023-03-13T18:22:15.954Z,15.23
2023-03-13T18:24:44.119Z,15.20
2023-03-13T18:27:15.235Z,15.18
2023-03-13T18:29:43.343Z,15.14
2023-03-13T18:32:13.526Z,15.14
2023-03-13T18:34:42.003Z,15.11
2023-03-13T18:37:21.061Z,15.12
2023-03-13T18:39:50.065Z,15.13
2023-03-13T18:42:19.786Z,15.13
2023-03-13T18:44:47.552Z,15.10
2023-03-13T18:47:18.166Z,15.09
2023-03-13T18:49:46.885Z,15.11
2023-03-13T18:52:14.666Z,15.10
2023-03-13T18:54:42.560Z,15.06
2023-03-13T18:57:15.200Z,15.07
2023-03-13T18:59:44.966Z,15.09
2023-03-13T19:02:14.934Z,15.06
2023-03-13T19:04:42.873Z,15.11
2023-03-13T19:07:15.973Z,15.11
2023-03-13T19:09:46.321Z,15.12
2023-03-13T19:12:15.425Z,15.11
2023-03-13T19:14:45.164Z,15.07
2023-03-13T19:17:24.024Z,14.97
2023-03-13T19:19:55.880Z,14.98
2023-03-13T19:22:23.789Z,14.84
2023-03-13T19:24:51.432Z,14.82
2023-03-13T19:27:19.109Z,14.69
2023-03-13T19:29:48.315Z,14.58
2023-03-13T19:32:17.151Z,14.51
2023-03-13T19:34:45.772Z,14.43
2023-03-13T19:37:15.174Z,14.39
2023-03-13T19:39:43.062Z,14.38
2023-03-13T19:42:10.827Z,14.38
2023-03-13T19:44:40.272Z,14.36
2023-03-13T19:47:14.984Z,14.36
2023-03-13T19:49:42.779Z,14.34
2023-03-13T19:52:10.431Z,14.36
2023-03-13T19:54:38.215Z,14.27
2023-03-13T19:57:05.970Z,14.17
2023-03-13T19:59:35.236Z,14.14
2023-03-13T20:02:04.346Z,14.11
2023-03-13T20:04:34.252Z,14.14
2023-03-13T20:07:02.331Z,13.98
2023-03-13T20:09:34.794Z,13.91
2023-03-13T20:12:03.256Z,13.82
2023-03-13T20:14:30.909Z,13.81
2023-03-13T20:16:58.603Z,13.75
2023-03-13T20:19:29.140Z,13.72
2023-03-13T20:22:03.700Z,13.62
2023-03-13T20:24:33.184Z,13.48
2023-03-13T20:27:00.996Z,13.45
2023-03-13T20:29:28.884Z,13.40
2023-03-13T20:31:59.584Z,13.32
2023-03-13T20:34:27.630Z,13.16
2023-03-13T20:36:57.092Z,12.91
2023-03-13T20:39:26.698Z,12.77
2023-03-13T20:41:56.218Z,12.66
2023-03-13T20:44:23.999Z,12.53
2023-03-13T20:46:52.150Z,12.52
2023-03-13T20:49:19.972Z,12.55
2023-03-13T20:51:47.735Z,12.69
2023-03-13T20:54:15.444Z,12.77
2023-03-13T20:56:44.443Z,12.81
2023-03-13T20:59:12.143Z,12.80
2023-03-13T21:01:39.835Z,12.73
2023-03-13T21:04:07.491Z,12.69
2023-03-13T21:06:35.410Z,12.78
2023-03-13T21:09:03.481Z,12.80
2023-03-13T21:11:31.224Z,12.82
2023-03-13T21:14:00.327Z,12.80
2023-03-13T21:16:28.114Z,12.71
2023-03-13T21:18:55.794Z,12.65
2023-03-13T21:21:23.548Z,12.62
2023-03-13T21:23:53.068Z,12.57
2023-03-13T21:26:21.132Z,12.51
2023-03-13T21:28:48.946Z,12.46
2023-03-13T21:31:20.077Z,12.37
2023-03-13T21:33:48.521Z,12.38
2023-03-13T21:36:20.865Z,12.38
2023-03-13T21:38:49.286Z,12.34
2023-03-13T21:41:19.136Z,12.38
2023-03-13T21:43:47.093Z,12.38
2023-03-13T21:46:16.970Z,12.37
2023-03-13T21:48:47.005Z,12.46
2023-03-13T21:51:15.031Z,12.48
2023-03-13T21:53:44.437Z,12.46
2023-03-13T21:56:15.670Z,12.46
2023-03-13T21:58:43.971Z,12.42
2023-03-13T22:01:12.729Z,12.39
2023-03-13T22:03:40.567Z,12.38
2023-03-13T22:06:14.616Z,12.35
2023-03-13T22:08:42.662Z,12.30
2023-03-13T22:11:10.643Z,12.33
2023-03-13T22:13:38.439Z,12.37
2023-03-13T22:16:07.079Z,12.30
2023-03-13T22:18:34.749Z,12.25
2023-03-13T22:21:05.248Z,12.36
2023-03-13T22:23:34.903Z,12.33
2023-03-13T22:26:08.002Z,12.33
2023-03-13T22:28:35.752Z,12.32
2023-03-13T22:31:04.202Z,12.29
2023-03-13T22:33:46.770Z,12.29
2023-03-13T22:36:14.511Z,12.34
2023-03-13T22:38:43.602Z,12.30
2023-03-13T22:41:14.614Z,12.24
2023-03-13T22:43:42.562Z,12.23
2023-03-13T22:46:11.301Z,12.30
2023-03-13T22:48:39.050Z,12.27
2023-03-13T22:51:09.174Z,12.20
2023-03-13T22:53:38.707Z,12.19
2023-03-13T22:56:10.128Z,12.20
2023-03-13T22:58:38.117Z,12.16
2023-03-13T23:01:07.434Z,12.19
2023-03-13T23:03:35.250Z,12.24
2023-03-13T23:06:06.344Z,12.23
2023-03-13T23:08:34.066Z,12.24
2023-03-13T23:11:02.991Z,12.27
2023-03-13T23:13:32.752Z,12.27
2023-03-13T23:16:00.692Z,12.35
2023-03-13T23:18:29.415Z,12.35
2023-03-13T23:20:57.067Z,12.28
2023-03-13T23:23:26.895Z,12.28
2023-03-13T23:25:54.689Z,12.32
2023-03-13T23:28:22.292Z,12.34
2023-03-13T23:30:51.300Z,12.31
2023-03-13T23:33:19.143Z,12.41
2023-03-13T23:35:46.897Z,12.48
2023-03-13T23:38:18.237Z,12.50
2023-03-13T23:40:46.088Z,12.56
2023-03-13T23:43:13.763Z,12.58
2023-03-13T23:45:41.427Z,12.66
2023-03-13T23:48:10.497Z,12.53
2023-03-13T23:50:38.158Z,12.53
2023-03-13T23:53:05.836Z,12.58
2023-03-13T23:55:33.596Z,12.58
2023-03-13T23:58:01.264Z,12.64
